createdAt,value
2015-08-10T00:00:07.935Z,74388
2015-08-10T00:00:20.326Z,74383
2015-08-10T00:00:32.701Z,74388
2015-08-10T00:00:45.107Z,74381
2015-08-10T00:00:57.484Z,74383
2015-08-10T00:01:09.859Z,74382
2015-08-10T00:01:22.250Z,74391
2015-08-10T00:01:34.609Z,74378
2015-08-10T00:01:47.000Z,74379
2015-08-10T00:01:59.377Z,74382
2015-08-10T00:02:11.752Z,74386
2015-08-10T00:02:24.127Z,74387
2015-08-10T00:02:36.502Z,74387
2015-08-10T00:02:48.877Z,74386
2015-08-10T00:03:01.254Z,74382
2015-08-10T00:03:13.645Z,74382
2015-08-10T00:03:26.020Z,74385
2015-08-10T00:03:38.395Z,74386
2015-08-10T00:03:50.770Z,74381
2015-08-10T00:04:03.147Z,74384
2015-08-10T00:04:15.522Z,74381
2015-08-10T00:04:27.897Z,74380
2015-08-10T00:04:40.287Z,74378
2015-08-10T00:04:52.647Z,74379
2015-08-10T00:05:05.024Z,74383
2015-08-10T00:05:17.414Z,74382
2015-08-10T00:05:29.805Z,74378
2015-08-10T00:05:41.492Z,74380
2015-08-10T00:05:53.883Z,74379
2015-08-10T00:06:06.307Z,74378
2015-08-10T00:06:18.697Z,74379
2015-08-10T00:06:31.104Z,74381
2015-08-10T00:06:43.510Z,74381
2015-08-10T00:06:55.901Z,74383
2015-08-10T00:07:08.309Z,74380
2015-08-10T00:07:20.699Z,74376
2015-08-10T00:07:33.137Z,74377
2015-08-10T00:07:45.528Z,74382
2015-08-10T00:07:57.918Z,74376
2015-08-10T00:08:10.325Z,74377
2015-08-10T00:08:22.732Z,74377
2015-08-10T00:08:35.107Z,74375
2015-08-10T00:08:47.482Z,74376
2015-08-10T00:08:59.872Z,74374
2015-08-10T00:09:12.266Z,74374
2015-08-10T00:09:24.641Z,74377
2015-08-10T00:09:37.016Z,74379
2015-08-10T00:09:49.391Z,74377
2015-08-10T00:10:01.063Z,74381
2015-08-10T00:10:13.423Z,74375
2015-08-10T00:10:25.798Z,74377
2015-08-10T00:10:38.173Z,74379
2015-08-10T00:10:50.548Z,74377
2015-08-10T00:11:02.923Z,74380
2015-08-10T00:11:15.301Z,74379
2015-08-10T00:11:27.692Z,74381
2015-08-10T00:11:40.067Z,74376
2015-08-10T00:11:52.457Z,74379
2015-08-10T00:12:04.832Z,74381
2015-08-10T00:12:17.209Z,74380
2015-08-10T00:12:29.584Z,74380
2015-08-10T00:12:41.959Z,74375
2015-08-10T00:12:54.350Z,74377
2015-08-10T00:13:06.725Z,74382
2015-08-10T00:13:19.102Z,74381
2015-08-10T00:13:31.477Z,74380
2015-08-10T00:13:43.852Z,74378
2015-08-10T00:13:56.227Z,74375
2015-08-10T00:14:08.602Z,74380
2015-08-10T00:14:20.995Z,74376
2015-08-10T00:14:33.385Z,74381
2015-08-10T00:14:45.760Z,74378
2015-08-10T00:14:58.151Z,74372
2015-08-10T00:15:09.823Z,74380
2015-08-10T00:15:22.214Z,74377
2015-08-10T00:15:34.621Z,74382
2015-08-10T00:15:47.043Z,74379
2015-08-10T00:15:59.449Z,74375
2015-08-10T00:16:11.871Z,74379
2015-08-10T00:16:24.280Z,74378
2015-08-10T00:16:36.671Z,74379
2015-08-10T00:16:49.077Z,74379
2015-08-10T00:17:01.483Z,74379
2015-08-10T00:17:13.889Z,74380
2015-08-10T00:17:26.281Z,74382
2015-08-10T00:17:38.687Z,74381
2015-08-10T00:17:51.109Z,74379
2015-08-10T00:18:03.484Z,74380
2015-08-10T00:18:15.859Z,74382
2015-08-10T00:18:28.236Z,74380
2015-08-10T00:18:40.611Z,74381
2015-08-10T00:18:52.986Z,74379
2015-08-10T00:19:05.361Z,74375
2015-08-10T00:19:17.736Z,74374
2015-08-10T00:19:30.129Z,74377
2015-08-10T00:19:42.504Z,74377
2015-08-10T00:19:54.879Z,74372
2015-08-10T00:20:07.254Z,74371
2015-08-10T00:20:19.644Z,74373
2015-08-10T00:20:32.007Z,74377
2015-08-10T00:20:44.397Z,74376
2015-08-10T00:20:56.772Z,74373
2015-08-10T00:21:09.147Z,74373
2015-08-10T00:21:21.522Z,74372
2015-08-10T00:21:33.899Z,74374
2015-08-10T00:21:46.274Z,74374
2015-08-10T00:21:58.649Z,74374
2015-08-10T00:22:11.024Z,74373
2015-08-10T00:22:23.415Z,74369
2015-08-10T00:22:35.072Z,74371
2015-08-10T00:22:47.463Z,74371
2015-08-10T00:22:59.838Z,74372
2015-08-10T00:23:12.213Z,74371
2015-08-10T00:23:24.588Z,74371
2015-08-10T00:23:36.949Z,74369
2015-08-10T00:23:49.340Z,74371
2015-08-10T00:24:01.715Z,74372
2015-08-10T00:24:14.121Z,74371
2015-08-10T00:24:26.512Z,74368
2015-08-10T00:24:38.890Z,74369
2015-08-10T00:24:51.280Z,74372
2015-08-10T00:25:03.687Z,74367
2015-08-10T00:25:16.108Z,74370
2015-08-10T00:25:28.515Z,74371
2015-08-10T00:25:40.923Z,74368
2015-08-10T00:25:53.314Z,74371
2015-08-10T00:26:05.720Z,74367
2015-08-10T00:26:18.142Z,74371
2015-08-10T00:26:30.548Z,74367
2015-08-10T00:26:42.971Z,74371
2015-08-10T00:26:55.361Z,74368
2015-08-10T00:27:07.768Z,74368
2015-08-10T00:27:20.174Z,74369
2015-08-10T00:27:32.580Z,74370
2015-08-10T00:27:44.957Z,74370
2015-08-10T00:27:57.332Z,74371
2015-08-10T00:28:09.707Z,74370
2015-08-10T00:28:21.379Z,74369
2015-08-10T00:28:33.754Z,74369
2015-08-10T00:28:46.131Z,74369
2015-08-10T00:28:58.506Z,74368
2015-08-10T00:29:10.897Z,74370
2015-08-10T00:29:23.272Z,74369
2015-08-10T00:29:35.647Z,74369
2015-08-10T00:29:48.039Z,74369
2015-08-10T00:30:00.414Z,74369
2015-08-10T00:30:12.789Z,74371
2015-08-10T00:30:25.164Z,74370
2015-08-10T00:30:37.555Z,74368
2015-08-10T00:30:49.933Z,74369
2015-08-10T00:31:02.308Z,74366
2015-08-10T00:31:14.683Z,74368
2015-08-10T00:31:27.058Z,74368
2015-08-10T00:31:39.433Z,74369
2015-08-10T00:31:51.809Z,74369
2015-08-10T00:32:04.200Z,74369
2015-08-10T00:32:16.575Z,74369
2015-08-10T00:32:28.950Z,74364
2015-08-10T00:32:41.325Z,74367
2015-08-10T00:32:53.703Z,74366
2015-08-10T00:33:06.078Z,74365
2015-08-10T00:33:18.453Z,74364
2015-08-10T00:33:30.859Z,74365
2015-08-10T00:33:43.234Z,74366
2015-08-10T00:33:54.907Z,74360
2015-08-10T00:34:07.282Z,74365
2015-08-10T00:34:19.688Z,74364
2015-08-10T00:34:32.063Z,74363
2015-08-10T00:34:44.485Z,74363
2015-08-10T00:34:56.893Z,74364
2015-08-10T00:35:09.299Z,74363
2015-08-10T00:35:21.721Z,74362
2015-08-10T00:35:34.112Z,74365
2015-08-10T00:35:46.502Z,74364
2015-08-10T00:35:58.911Z,74359
2015-08-10T00:36:11.317Z,74366
2015-08-10T00:36:23.739Z,74363
2015-08-10T00:36:36.161Z,74364
2015-08-10T00:36:48.567Z,74361
2015-08-10T00:37:00.960Z,74360
2015-08-10T00:37:13.397Z,74364
2015-08-10T00:37:25.772Z,74359
2015-08-10T00:37:37.428Z,74367
2015-08-10T00:37:49.803Z,74360
2015-08-10T00:38:02.180Z,74363
2015-08-10T00:38:14.555Z,74364
2015-08-10T00:38:26.930Z,74362
2015-08-10T00:38:39.305Z,74362
2015-08-10T00:38:51.680Z,74361
2015-08-10T00:39:04.057Z,74359
2015-08-10T00:39:16.432Z,74362
2015-08-10T00:39:28.807Z,74364
2015-08-10T00:39:41.182Z,74362
2015-08-10T00:39:53.557Z,74363
2015-08-10T00:40:05.934Z,74364
2015-08-10T00:40:18.325Z,74361
2015-08-10T00:40:30.700Z,74361
2015-08-10T00:40:43.075Z,74366
2015-08-10T00:40:55.466Z,74363
2015-08-10T00:41:07.843Z,74361
2015-08-10T00:41:20.218Z,74362
2015-08-10T00:41:32.593Z,74359
2015-08-10T00:41:44.983Z,74363
2015-08-10T00:41:57.358Z,74361
2015-08-10T00:42:09.735Z,74362
2015-08-10T00:42:22.110Z,74365
2015-08-10T00:42:34.485Z,74363
2015-08-10T00:42:46.860Z,74364
2015-08-10T00:42:59.235Z,74362
2015-08-10T00:43:11.628Z,74364
2015-08-10T00:43:24.018Z,74363
2015-08-10T00:43:36.409Z,74361
2015-08-10T00:43:48.784Z,74363
2015-08-10T00:44:01.175Z,74363
2015-08-10T00:44:13.567Z,74361
2015-08-10T00:44:25.989Z,74359
2015-08-10T00:44:38.395Z,74364
2015-08-10T00:44:50.802Z,74364
2015-08-10T00:45:03.224Z,74362
2015-08-10T00:45:15.632Z,74368
2015-08-10T00:45:28.038Z,74361
2015-08-10T00:45:40.444Z,74364
2015-08-10T00:45:52.835Z,74363
2015-08-10T00:46:05.272Z,74368
2015-08-10T00:46:16.962Z,74367
2015-08-10T00:46:29.384Z,74363
2015-08-10T00:46:41.759Z,74362
2015-08-10T00:46:54.118Z,74361
2015-08-10T00:47:06.493Z,74366
2015-08-10T00:47:18.870Z,74359
2015-08-10T00:47:31.245Z,74361
2015-08-10T00:47:43.620Z,74362
2015-08-10T00:47:55.995Z,74363
2015-08-10T00:48:08.386Z,74361
2015-08-10T00:48:20.778Z,74359
2015-08-10T00:48:33.153Z,74362
2015-08-10T00:48:45.528Z,74363
2015-08-10T00:48:57.903Z,74361
2015-08-10T00:49:10.278Z,74363
2015-08-10T00:49:22.655Z,74359
2015-08-10T00:49:35.046Z,74360
2015-08-10T00:49:47.421Z,74362
2015-08-10T00:49:59.796Z,74363
2015-08-10T00:50:12.171Z,74360
2015-08-10T00:50:24.548Z,74364
2015-08-10T00:50:36.923Z,74359
2015-08-10T00:50:49.298Z,74360
2015-08-10T00:51:01.689Z,74363
2015-08-10T00:51:14.079Z,74359
2015-08-10T00:51:26.472Z,74362
2015-08-10T00:51:38.863Z,74362
2015-08-10T00:51:51.253Z,74364
2015-08-10T00:52:03.628Z,74366
2015-08-10T00:52:16.019Z,74364
2015-08-10T00:52:28.411Z,74363
2015-08-10T00:52:40.818Z,74363
2015-08-10T00:52:53.208Z,74363
2015-08-10T00:53:05.615Z,74366
2015-08-10T00:53:18.021Z,74364
2015-08-10T00:53:30.413Z,74367
2015-08-10T00:53:42.851Z,74365
2015-08-10T00:53:55.257Z,74362
2015-08-10T00:54:06.945Z,74364
2015-08-10T00:54:19.195Z,74359
2015-08-10T00:54:31.603Z,74360
2015-08-10T00:54:44.040Z,74364
2015-08-10T00:54:56.415Z,74362
2015-08-10T00:55:08.790Z,74362
2015-08-10T00:55:21.181Z,74363
2015-08-10T00:55:33.574Z,74364
2015-08-10T00:55:45.949Z,74363
2015-08-10T00:55:58.324Z,74363
2015-08-10T00:56:10.699Z,74365
2015-08-10T00:56:23.074Z,74362
2015-08-10T00:56:35.466Z,74362
2015-08-10T00:56:47.841Z,74362
2015-08-10T00:57:00.216Z,74362
2015-08-10T00:57:12.591Z,74361
2015-08-10T00:57:24.966Z,74362
2015-08-10T00:57:37.343Z,74361
2015-08-10T00:57:49.734Z,74361
2015-08-10T00:58:02.109Z,74363
2015-08-10T00:58:14.484Z,74363
2015-08-10T00:58:26.859Z,74359
2015-08-10T00:58:39.235Z,74360
2015-08-10T00:58:51.610Z,74360
2015-08-10T00:59:04.032Z,74361
2015-08-10T00:59:16.407Z,74359
2015-08-10T00:59:28.782Z,74360
2015-08-10T00:59:41.159Z,74356
2015-08-10T00:59:53.534Z,74356
2015-08-10T01:00:05.893Z,74361
2015-08-10T01:00:18.284Z,74357
2015-08-10T01:00:30.659Z,74361
2015-08-10T01:00:43.020Z,74358
2015-08-10T01:00:55.426Z,74359
2015-08-10T01:01:07.801Z,74354
2015-08-10T01:01:20.192Z,74359
2015-08-10T01:01:32.567Z,74360
2015-08-10T01:01:44.961Z,74356
2015-08-10T01:01:57.367Z,74354
2015-08-10T01:02:09.773Z,74359
2015-08-10T01:02:22.179Z,74354
2015-08-10T01:02:34.586Z,74353
2015-08-10T01:02:46.994Z,74358
2015-08-10T01:02:59.400Z,74353
2015-08-10T01:03:11.806Z,74349
2015-08-10T01:03:24.213Z,74354
2015-08-10T01:03:36.635Z,74351
2015-08-10T01:03:49.043Z,74351
2015-08-10T01:04:01.433Z,74352
2015-08-10T01:04:13.824Z,74350
2015-08-10T01:04:26.277Z,74361
2015-08-10T01:04:38.652Z,74356
2015-08-10T01:04:51.029Z,74349
2015-08-10T01:05:03.404Z,74359
2015-08-10T01:05:15.779Z,74354
2015-08-10T01:05:28.154Z,74348
2015-08-10T01:05:40.529Z,74358
2015-08-10T01:05:52.906Z,74356
2015-08-10T01:06:05.281Z,74351
2015-08-10T01:06:17.672Z,74351
2015-08-10T01:06:30.047Z,74360
2015-08-10T01:06:42.422Z,74353
2015-08-10T01:06:54.798Z,74351
2015-08-10T01:07:07.173Z,74360
2015-08-10T01:07:19.532Z,74356
2015-08-10T01:07:31.907Z,74350
2015-08-10T01:07:43.579Z,74348
2015-08-10T01:07:55.973Z,74354
2015-08-10T01:08:07.645Z,74350
2015-08-10T01:08:20.020Z,74354
2015-08-10T01:08:32.395Z,74348
2015-08-10T01:08:44.770Z,74354
2015-08-10T01:08:57.147Z,74348
2015-08-10T01:09:09.537Z,74353
2015-08-10T01:09:21.912Z,74351
2015-08-10T01:09:34.287Z,74348
2015-08-10T01:09:46.662Z,74356
2015-08-10T01:09:59.038Z,74347
2015-08-10T01:10:11.413Z,74354
2015-08-10T01:10:23.788Z,74349
2015-08-10T01:10:36.194Z,74348
2015-08-10T01:10:48.585Z,74348
2015-08-10T01:11:00.962Z,74350
2015-08-10T01:11:13.337Z,74350
2015-08-10T01:11:25.728Z,74351
2015-08-10T01:11:37.978Z,74348
2015-08-10T01:11:50.384Z,74351
2015-08-10T01:12:02.793Z,74351
2015-08-10T01:12:15.199Z,74353
2015-08-10T01:12:27.606Z,74350
2015-08-10T01:12:40.012Z,74351
2015-08-10T01:12:52.418Z,74350
2015-08-10T01:13:04.825Z,74350
2015-08-10T01:13:17.247Z,74349
2015-08-10T01:13:28.950Z,74351
2015-08-10T01:13:41.372Z,74352
2015-08-10T01:13:53.779Z,74352
2015-08-10T01:14:06.187Z,74348
2015-08-10T01:14:18.562Z,74354
2015-08-10T01:14:30.937Z,74347
2015-08-10T01:14:43.312Z,74351
2015-08-10T01:14:55.687Z,74349
2015-08-10T01:15:08.048Z,74347
2015-08-10T01:15:20.423Z,74352
2015-08-10T01:15:32.814Z,74348
2015-08-10T01:15:45.189Z,74348
2015-08-10T01:15:57.564Z,74348
2015-08-10T01:16:09.941Z,74351
2015-08-10T01:16:22.331Z,74348
2015-08-10T01:16:34.706Z,74349
2015-08-10T01:16:47.081Z,74349
2015-08-10T01:16:59.456Z,74350
2015-08-10T01:17:11.849Z,74346
2015-08-10T01:17:24.224Z,74348
2015-08-10T01:17:36.615Z,74352
2015-08-10T01:17:48.990Z,74347
2015-08-10T01:18:01.365Z,74350
2015-08-10T01:18:13.757Z,74350
2015-08-10T01:18:25.414Z,74350
2015-08-10T01:18:37.820Z,74350
2015-08-10T01:18:50.179Z,74347
2015-08-10T01:19:02.554Z,74345
2015-08-10T01:19:14.931Z,74349
2015-08-10T01:19:27.306Z,74345
2015-08-10T01:19:39.681Z,74348
2015-08-10T01:19:52.056Z,74345
2015-08-10T01:20:04.447Z,74342
2015-08-10T01:20:16.824Z,74344
2015-08-10T01:20:29.214Z,74345
2015-08-10T01:20:41.605Z,74345
2015-08-10T01:20:53.996Z,74345
2015-08-10T01:21:06.386Z,74344
2015-08-10T01:21:18.795Z,74343
2015-08-10T01:21:31.216Z,74341
2015-08-10T01:21:43.607Z,74348
2015-08-10T01:21:56.029Z,74343
2015-08-10T01:22:08.435Z,74345
2015-08-10T01:22:20.843Z,74343
2015-08-10T01:22:33.265Z,74344
2015-08-10T01:22:45.656Z,74343
2015-08-10T01:22:58.078Z,74342
2015-08-10T01:23:10.468Z,74346
2015-08-10T01:23:22.877Z,74343
2015-08-10T01:23:35.283Z,74342
2015-08-10T01:23:47.705Z,74342
2015-08-10T01:24:00.080Z,74340
2015-08-10T01:24:12.455Z,74342
2015-08-10T01:24:24.832Z,74344
2015-08-10T01:24:37.207Z,74345
2015-08-10T01:24:49.582Z,74346
2015-08-10T01:25:01.957Z,74344
2015-08-10T01:25:14.332Z,74345
2015-08-10T01:25:26.709Z,74346
2015-08-10T01:25:39.084Z,74340
2015-08-10T01:25:51.459Z,74340
2015-08-10T01:26:03.834Z,74347
2015-08-10T01:26:16.209Z,74345
2015-08-10T01:26:28.586Z,74340
2015-08-10T01:26:40.976Z,74343
2015-08-10T01:26:53.351Z,74345
2015-08-10T01:27:05.726Z,74342
2015-08-10T01:27:18.101Z,74345
2015-08-10T01:27:30.478Z,74343
2015-08-10T01:27:42.853Z,74344
2015-08-10T01:27:55.228Z,74339
2015-08-10T01:28:07.603Z,74337
2015-08-10T01:28:19.291Z,74337
2015-08-10T01:28:31.668Z,74344
2015-08-10T01:28:44.043Z,74339
2015-08-10T01:28:56.418Z,74340
2015-08-10T01:29:08.793Z,74338
2015-08-10T01:29:21.168Z,74341
2015-08-10T01:29:33.545Z,74339
2015-08-10T01:29:45.936Z,74340
2015-08-10T01:29:57.607Z,74336
2015-08-10T01:30:09.279Z,74341
2015-08-10T01:30:21.654Z,74340
2015-08-10T01:30:34.047Z,74337
2015-08-10T01:30:46.438Z,74339
2015-08-10T01:30:58.844Z,74345
2015-08-10T01:31:11.250Z,74338
2015-08-10T01:31:23.672Z,74342
2015-08-10T01:31:36.080Z,74341
2015-08-10T01:31:48.486Z,74340
2015-08-10T01:32:00.893Z,74339
2015-08-10T01:32:13.299Z,74339
2015-08-10T01:32:25.705Z,74339
2015-08-10T01:32:38.129Z,74343
2015-08-10T01:32:50.535Z,74339
2015-08-10T01:33:02.942Z,74339
2015-08-10T01:33:15.317Z,74337
2015-08-10T01:33:27.692Z,74340
2015-08-10T01:33:40.084Z,74345
2015-08-10T01:33:52.459Z,74338
2015-08-10T01:34:04.850Z,74339
2015-08-10T01:34:17.225Z,74341
2015-08-10T01:34:29.600Z,74337
2015-08-10T01:34:41.992Z,74343
2015-08-10T01:34:54.367Z,74340
2015-08-10T01:35:06.742Z,74342
2015-08-10T01:35:19.117Z,74338
2015-08-10T01:35:31.508Z,74338
2015-08-10T01:35:43.885Z,74342
2015-08-10T01:35:56.260Z,74337
2015-08-10T01:36:08.651Z,74341
2015-08-10T01:36:21.026Z,74338
2015-08-10T01:36:33.401Z,74344
2015-08-10T01:36:45.778Z,74340
2015-08-10T01:36:58.168Z,74340
2015-08-10T01:37:10.543Z,74343
2015-08-10T01:37:22.918Z,74341
2015-08-10T01:37:35.309Z,74339
2015-08-10T01:37:47.686Z,74339
2015-08-10T01:38:00.061Z,74338
2015-08-10T01:38:12.436Z,74339
2015-08-10T01:38:24.811Z,74337
2015-08-10T01:38:37.202Z,74337
2015-08-10T01:38:48.875Z,74336
2015-08-10T01:39:01.250Z,74343
2015-08-10T01:39:13.641Z,74339
2015-08-10T01:39:26.016Z,74336
2015-08-10T01:39:38.407Z,74341
2015-08-10T01:39:50.799Z,74341
2015-08-10T01:40:03.190Z,74338
2015-08-10T01:40:15.581Z,74335
2015-08-10T01:40:28.002Z,74332
2015-08-10T01:40:40.393Z,74336
2015-08-10T01:40:52.770Z,74337
2015-08-10T01:41:05.145Z,74337
2015-08-10T01:41:17.551Z,74337
2015-08-10T01:41:29.958Z,74341
2015-08-10T01:41:42.348Z,74338
2015-08-10T01:41:54.772Z,74341
2015-08-10T01:42:07.163Z,74339
2015-08-10T01:42:19.600Z,74338
2015-08-10T01:42:31.975Z,74337
2015-08-10T01:42:44.366Z,74342
2015-08-10T01:42:56.742Z,74338
2015-08-10T01:43:09.117Z,74337
2015-08-10T01:43:21.492Z,74340
2015-08-10T01:43:33.867Z,74339
2015-08-10T01:43:46.242Z,74339
2015-08-10T01:43:58.619Z,74339
2015-08-10T01:44:10.994Z,74340
2015-08-10T01:44:23.369Z,74341
2015-08-10T01:44:35.759Z,74342
2015-08-10T01:44:48.134Z,74345
2015-08-10T01:45:00.512Z,74339
2015-08-10T01:45:12.887Z,74341
2015-08-10T01:45:25.262Z,74341
2015-08-10T01:45:37.653Z,74341
2015-08-10T01:45:50.028Z,74340
2015-08-10T01:46:02.405Z,74340
2015-08-10T01:46:14.780Z,74344
2015-08-10T01:46:27.155Z,74342
2015-08-10T01:46:39.530Z,74346
2015-08-10T01:46:51.889Z,74342
2015-08-10T01:47:04.282Z,74337
2015-08-10T01:47:15.938Z,74341
2015-08-10T01:47:28.313Z,74343
2015-08-10T01:47:40.688Z,74342
2015-08-10T01:47:53.063Z,74339
2015-08-10T01:48:05.440Z,74339
2015-08-10T01:48:17.815Z,74340
2015-08-10T01:48:30.206Z,74342
2015-08-10T01:48:42.597Z,74335
2015-08-10T01:48:54.987Z,74340
2015-08-10T01:49:07.380Z,74342
2015-08-10T01:49:19.755Z,74340
2015-08-10T01:49:32.161Z,74337
2015-08-10T01:49:44.567Z,74336
2015-08-10T01:49:56.270Z,74337
2015-08-10T01:50:08.678Z,74339
2015-08-10T01:50:21.084Z,74339
2015-08-10T01:50:33.490Z,74339
2015-08-10T01:50:45.912Z,74341
2015-08-10T01:50:58.303Z,74341
2015-08-10T01:51:10.728Z,74337
2015-08-10T01:51:23.134Z,74340
2015-08-10T01:51:35.524Z,74342
2015-08-10T01:51:47.946Z,74338
2015-08-10T01:52:00.337Z,74339
2015-08-10T01:52:12.792Z,74341
2015-08-10T01:52:25.167Z,74341
2015-08-10T01:52:37.542Z,74338
2015-08-10T01:52:49.917Z,74339
2015-08-10T01:53:02.276Z,74338
2015-08-10T01:53:14.653Z,74339
2015-08-10T01:53:27.028Z,74336
2015-08-10T01:53:39.403Z,74335
2015-08-10T01:53:51.778Z,74336
2015-08-10T01:54:04.169Z,74338
2015-08-10T01:54:16.545Z,74337
2015-08-10T01:54:28.920Z,74338
2015-08-10T01:54:41.295Z,74338
2015-08-10T01:54:53.654Z,74336
2015-08-10T01:55:06.029Z,74341
2015-08-10T01:55:18.422Z,74339
2015-08-10T01:55:30.813Z,74335
2015-08-10T01:55:43.188Z,74336
2015-08-10T01:55:55.563Z,74339
2015-08-10T01:56:07.938Z,74340
2015-08-10T01:56:20.316Z,74333
2015-08-10T01:56:32.691Z,74335
2015-08-10T01:56:45.066Z,74336
2015-08-10T01:56:57.456Z,74330
2015-08-10T01:57:09.863Z,74337
2015-08-10T01:57:22.240Z,74334
2015-08-10T01:57:34.615Z,74338
2015-08-10T01:57:46.990Z,74335
2015-08-10T01:57:59.349Z,74337
2015-08-10T01:58:11.724Z,74335
2015-08-10T01:58:24.117Z,74336
2015-08-10T01:58:36.507Z,74335
2015-08-10T01:58:48.898Z,74335
2015-08-10T01:59:01.288Z,74334
2015-08-10T01:59:13.663Z,74334
2015-08-10T01:59:26.071Z,74332
2015-08-10T01:59:38.477Z,74334
2015-08-10T01:59:50.914Z,74336
2015-08-10T02:00:03.336Z,74334
2015-08-10T02:00:15.727Z,74332
2015-08-10T02:00:28.151Z,74337
2015-08-10T02:00:40.541Z,74336
2015-08-10T02:00:52.948Z,74335
2015-08-10T02:01:05.385Z,74334
2015-08-10T02:01:17.635Z,74332
2015-08-10T02:01:30.043Z,74336
2015-08-10T02:01:42.450Z,74335
2015-08-10T02:01:54.856Z,74335
2015-08-10T02:02:07.231Z,74334
2015-08-10T02:02:19.606Z,74332
2015-08-10T02:02:31.983Z,74330
2015-08-10T02:02:43.655Z,74331
2015-08-10T02:02:56.030Z,74333
2015-08-10T02:03:08.405Z,74331
2015-08-10T02:03:20.780Z,74330
2015-08-10T02:03:33.172Z,74333
2015-08-10T02:03:45.547Z,74330
2015-08-10T02:03:57.922Z,74328
2015-08-10T02:04:10.297Z,74330
2015-08-10T02:04:22.672Z,74325
2015-08-10T02:04:35.050Z,74329
2015-08-10T02:04:46.722Z,74328
2015-08-10T02:04:59.394Z,74328
2015-08-10T02:05:11.769Z,74326
2015-08-10T02:05:24.144Z,74325
2015-08-10T02:05:36.520Z,74325
2015-08-10T02:05:48.911Z,74326
2015-08-10T02:06:01.286Z,74328
2015-08-10T02:06:13.661Z,74327
2015-08-10T02:06:26.051Z,74321
2015-08-10T02:06:38.429Z,74328
2015-08-10T02:06:50.804Z,74328
2015-08-10T02:07:03.179Z,74327
2015-08-10T02:07:15.554Z,74327
2015-08-10T02:07:27.929Z,74330
2015-08-10T02:07:40.305Z,74331
2015-08-10T02:07:52.696Z,74329
2015-08-10T02:08:05.087Z,74323
2015-08-10T02:08:17.477Z,74327
2015-08-10T02:08:29.868Z,74330
2015-08-10T02:08:42.261Z,74332
2015-08-10T02:08:54.651Z,74329
2015-08-10T02:09:07.057Z,74327
2015-08-10T02:09:19.464Z,74330
2015-08-10T02:09:31.151Z,74328
2015-08-10T02:09:43.559Z,74327
2015-08-10T02:09:55.263Z,74331
2015-08-10T02:10:07.653Z,74329
2015-08-10T02:10:20.059Z,74326
2015-08-10T02:10:32.466Z,74326
2015-08-10T02:10:44.905Z,74326
2015-08-10T02:10:57.296Z,74329
2015-08-10T02:11:09.702Z,74329
2015-08-10T02:11:22.124Z,74328
2015-08-10T02:11:34.499Z,74331
2015-08-10T02:11:46.876Z,74327
2015-08-10T02:11:59.251Z,74329
2015-08-10T02:12:11.626Z,74329
2015-08-10T02:12:24.001Z,74329
2015-08-10T02:12:36.376Z,74330
2015-08-10T02:12:48.753Z,74330
2015-08-10T02:13:01.128Z,74331
2015-08-10T02:13:13.519Z,74327
2015-08-10T02:13:25.894Z,74330
2015-08-10T02:13:38.269Z,74329
2015-08-10T02:13:50.646Z,74331
2015-08-10T02:14:03.021Z,74328
2015-08-10T02:14:15.396Z,74330
2015-08-10T02:14:27.786Z,74332
2015-08-10T02:14:39.458Z,74333
2015-08-10T02:14:51.835Z,74333
2015-08-10T02:15:04.210Z,74329
2015-08-10T02:15:16.585Z,74328
2015-08-10T02:15:28.960Z,74330
2015-08-10T02:15:41.335Z,74332
2015-08-10T02:15:53.728Z,74330
2015-08-10T02:16:06.103Z,74331
2015-08-10T02:16:18.493Z,74327
2015-08-10T02:16:30.868Z,74330
2015-08-10T02:16:43.243Z,74326
2015-08-10T02:16:54.917Z,74328
2015-08-10T02:17:07.292Z,74324
2015-08-10T02:17:19.683Z,74327
2015-08-10T02:17:32.073Z,74328
2015-08-10T02:17:44.464Z,74328
2015-08-10T02:17:56.841Z,74327
2015-08-10T02:18:09.232Z,74327
2015-08-10T02:18:21.607Z,74329
2015-08-10T02:18:34.013Z,74328
2015-08-10T02:18:46.435Z,74327
2015-08-10T02:18:58.859Z,74327
2015-08-10T02:19:11.281Z,74327
2015-08-10T02:19:23.687Z,74327
2015-08-10T02:19:36.093Z,74324
2015-08-10T02:19:48.484Z,74324
2015-08-10T02:20:00.892Z,74328
2015-08-10T02:20:13.314Z,74326
2015-08-10T02:20:25.720Z,74323
2015-08-10T02:20:38.126Z,74326
2015-08-10T02:20:50.548Z,74323
2015-08-10T02:21:02.972Z,74326
2015-08-10T02:21:15.347Z,74323
2015-08-10T02:21:27.722Z,74326
2015-08-10T02:21:40.097Z,74325
2015-08-10T02:21:52.472Z,74328
2015-08-10T02:22:04.849Z,74328
2015-08-10T02:22:17.224Z,74326
2015-08-10T02:22:29.615Z,74328
2015-08-10T02:22:42.021Z,74328
2015-08-10T02:22:53.677Z,74325
2015-08-10T02:23:06.054Z,74325
2015-08-10T02:23:18.429Z,74324
2015-08-10T02:23:30.804Z,74324
2015-08-10T02:23:43.179Z,74323
2015-08-10T02:23:55.554Z,74322
2015-08-10T02:24:07.947Z,74326
2015-08-10T02:24:20.322Z,74325
2015-08-10T02:24:32.697Z,74324
2015-08-10T02:24:45.072Z,74323
2015-08-10T02:24:57.447Z,74323
2015-08-10T02:25:09.823Z,74321
2015-08-10T02:25:22.198Z,74324
2015-08-10T02:25:34.588Z,74322
2015-08-10T02:25:46.963Z,74324
2015-08-10T02:25:59.338Z,74321
2015-08-10T02:26:11.716Z,74325
2015-08-10T02:26:24.091Z,74322
2015-08-10T02:26:36.466Z,74322
2015-08-10T02:26:48.138Z,74324
2015-08-10T02:27:00.529Z,74320
2015-08-10T02:27:12.906Z,74321
2015-08-10T02:27:25.297Z,74323
2015-08-10T02:27:37.687Z,74320
2015-08-10T02:27:50.062Z,74324
2015-08-10T02:28:02.453Z,74322
2015-08-10T02:28:14.845Z,74324
2015-08-10T02:28:27.252Z,74324
2015-08-10T02:28:39.658Z,74326
2015-08-10T02:28:52.064Z,74324
2015-08-10T02:29:04.470Z,74322
2015-08-10T02:29:16.863Z,74323
2015-08-10T02:29:29.254Z,74324
2015-08-10T02:29:41.644Z,74322
2015-08-10T02:29:54.066Z,74325
2015-08-10T02:30:06.457Z,74319
2015-08-10T02:30:18.849Z,74319
2015-08-10T02:30:31.271Z,74320
2015-08-10T02:30:43.646Z,74319
2015-08-10T02:30:56.021Z,74318
2015-08-10T02:31:08.396Z,74319
2015-08-10T02:31:20.773Z,74317
2015-08-10T02:31:33.148Z,74319
2015-08-10T02:31:45.523Z,74317
2015-08-10T02:31:57.898Z,74319
2015-08-10T02:32:10.289Z,74318
2015-08-10T02:32:22.649Z,74318
2015-08-10T02:32:35.040Z,74318
2015-08-10T02:32:47.415Z,74320
2015-08-10T02:32:59.774Z,74321
2015-08-10T02:33:12.149Z,74320
2015-08-10T02:33:24.527Z,74320
2015-08-10T02:33:36.934Z,74316
2015-08-10T02:33:49.309Z,74317
2015-08-10T02:34:01.684Z,74321
2015-08-10T02:34:14.059Z,74318
2015-08-10T02:34:26.436Z,74317
2015-08-10T02:34:38.811Z,74323
2015-08-10T02:34:51.186Z,74321
2015-08-10T02:35:03.576Z,74317
2015-08-10T02:35:15.951Z,74319
2015-08-10T02:35:28.328Z,74319
2015-08-10T02:35:40.703Z,74314
2015-08-10T02:35:53.078Z,74319
2015-08-10T02:36:05.438Z,74319
2015-08-10T02:36:17.828Z,74319
2015-08-10T02:36:30.205Z,74319
2015-08-10T02:36:42.596Z,74314
2015-08-10T02:36:55.002Z,74316
2015-08-10T02:37:07.377Z,74314
2015-08-10T02:37:19.768Z,74316
2015-08-10T02:37:32.176Z,74318
2015-08-10T02:37:44.567Z,74315
2015-08-10T02:37:56.988Z,74314
2015-08-10T02:38:09.395Z,74314
2015-08-10T02:38:21.801Z,74314
2015-08-10T02:38:34.193Z,74317
2015-08-10T02:38:46.599Z,74316
2015-08-10T02:38:58.989Z,74314
2015-08-10T02:39:11.380Z,74317